createdAt,value
2018-12-01T00:01:35.756Z,11.25
2018-12-01T00:04:04.518Z,9.60
2018-12-01T00:06:33.520Z,9.88
2018-12-01T00:09:02.382Z,12.58
2018-12-01T00:11:41.100Z,11.18
2018-12-01T00:14:10.373Z,11.83
2018-12-01T00:16:39.315Z,11.65
2018-12-01T00:19:08.208Z,11.12
2018-12-01T00:21:37.183Z,14.13
2018-12-01T00:24:07.278Z,11.53
2018-12-01T00:26:51.210Z,12.80
2018-12-01T00:29:21.009Z,10.98
2018-12-01T00:31:49.863Z,13.08
2018-12-01T00:34:19.541Z,13.32
2018-12-01T00:36:48.499Z,12.78
2018-12-01T00:39:17.646Z,15.93
2018-12-01T00:41:46.480Z,13.60
2018-12-01T00:44:17.289Z,13.20
2018-12-01T00:46:46.425Z,16.97
2018-12-01T00:49:16.282Z,14.00
2018-12-01T00:51:45.189Z,17.40
2018-12-01T00:54:14.102Z,13.72
2018-12-01T00:56:43.482Z,11.33
2018-12-01T00:59:12.807Z,13.78
2018-12-01T01:01:42.160Z,11.95
2018-12-01T01:04:11.382Z,14.05
2018-12-01T01:06:40.351Z,11.45
2018-12-01T01:09:09.681Z,15.20
2018-12-01T01:11:38.943Z,14.35
2018-12-01T01:14:07.770Z,14.00
2018-12-01T01:16:37.915Z,12.20
2018-12-01T01:19:07.795Z,9.95
2018-12-01T01:21:36.664Z,10.55
2018-12-01T01:24:05.844Z,14.73
2018-12-01T01:26:35.831Z,12.75
2018-12-01T01:29:04.916Z,10.20
2018-12-01T01:31:36.331Z,8.88
2018-12-01T01:34:05.477Z,7.62
2018-12-01T01:36:36.568Z,10.90
2018-12-01T01:39:07.303Z,7.85
2018-12-01T01:41:36.346Z,9.88
2018-12-01T01:44:06.288Z,10.58
2018-12-01T01:46:35.756Z,7.70
2018-12-01T01:49:04.730Z,7.80
2018-12-01T01:51:33.902Z,7.45
2018-12-01T01:54:02.806Z,9.63
2018-12-01T01:56:31.667Z,8.90
2018-12-01T01:59:01.190Z,8.68
2018-12-01T02:01:30.129Z,8.90
2018-12-01T02:04:00.038Z,7.40
2018-12-01T02:06:30.246Z,5.58
2018-12-01T02:08:59.225Z,5.70
2018-12-01T02:11:28.833Z,7.87
2018-12-01T02:13:58.498Z,7.35
2018-12-01T02:16:27.908Z,13.65
2018-12-01T02:18:56.985Z,13.60
2018-12-01T02:21:26.721Z,17.02
2018-12-01T02:23:55.860Z,18.50
2018-12-01T02:26:24.749Z,18.80
2018-12-01T02:28:53.519Z,24.67
2018-12-01T02:31:22.448Z,21.82
2018-12-01T02:33:51.368Z,18.48
2018-12-01T02:36:21.027Z,15.00
2018-12-01T02:38:49.944Z,16.20
2018-12-01T02:41:18.904Z,19.23
2018-12-01T02:43:58.862Z,21.97
2018-12-01T02:46:39.288Z,16.02
2018-12-01T02:49:08.527Z,14.93
2018-12-01T02:51:37.618Z,15.78
2018-12-01T02:54:07.862Z,15.23
2018-12-01T02:56:36.742Z,14.70
2018-12-01T02:59:06.438Z,13.40
2018-12-01T03:01:35.302Z,13.93
2018-12-01T03:04:04.898Z,12.00
2018-12-01T03:06:34.207Z,12.07
2018-12-01T03:09:03.419Z,11.63
2018-12-01T03:11:32.362Z,10.50
2018-12-01T03:14:03.885Z,9.05
2018-12-01T03:16:33.948Z,13.32
2018-12-01T03:19:03.100Z,6.83
2018-12-01T03:21:32.040Z,8.18
2018-12-01T03:24:01.902Z,11.85
2018-12-01T03:26:31.231Z,9.53
2018-12-01T03:29:00.183Z,11.60
2018-12-01T03:31:29.291Z,6.08
2018-12-01T03:33:58.435Z,7.37
2018-12-01T03:36:27.281Z,8.78
2018-12-01T03:38:56.063Z,9.43
2018-12-01T03:41:25.060Z,7.05
2018-12-01T03:43:54.491Z,9.18
2018-12-01T03:46:23.260Z,8.30
2018-12-01T03:48:52.142Z,6.72
2018-12-01T03:51:23.125Z,9.90
2018-12-01T03:53:52.088Z,9.08
2018-12-01T03:56:21.172Z,9.58
2018-12-01T03:58:49.955Z,8.35
2018-12-01T04:01:18.857Z,11.53
2018-12-01T04:03:47.652Z,11.65
2018-12-01T04:06:16.515Z,9.18
2018-12-01T04:08:45.804Z,8.65
2018-12-01T04:11:14.803Z,7.55
2018-12-01T04:13:43.579Z,8.18
2018-12-01T04:16:15.889Z,13.43
2018-12-01T04:18:44.617Z,19.65
2018-12-01T04:21:13.396Z,16.50
2018-12-01T04:23:44.139Z,9.75
2018-12-01T04:26:12.952Z,10.72
2018-12-01T04:28:42.033Z,11.70
2018-12-01T04:31:11.872Z,9.18
2018-12-01T04:33:40.624Z,13.40
2018-12-01T04:36:09.483Z,12.23
2018-12-01T04:38:38.986Z,9.93
2018-12-01T04:41:08.018Z,10.72
2018-12-01T04:43:36.875Z,10.23
2018-12-01T04:46:06.617Z,9.50
2018-12-01T04:48:35.420Z,6.25
2018-12-01T04:51:04.335Z,6.15
2018-12-01T04:53:33.056Z,6.65
2018-12-01T04:56:01.913Z,7.42
2018-12-01T04:58:30.876Z,10.00
2018-12-01T05:00:59.798Z,9.63
2018-12-01T05:03:28.551Z,12.37
2018-12-01T05:05:57.323Z,10.20
2018-12-01T05:08:26.187Z,10.28
2018-12-01T05:10:54.958Z,9.55
2018-12-01T05:13:23.766Z,11.43
2018-12-01T05:15:52.858Z,11.12
2018-12-01T05:18:22.019Z,8.85
2018-12-01T05:20:50.933Z,8.50
2018-12-01T05:23:20.146Z,11.43
2018-12-01T05:25:49.066Z,7.33
2018-12-01T05:28:18.304Z,12.20
2018-12-01T05:30:47.191Z,12.37
2018-12-01T05:33:16.084Z,14.20
2018-12-01T05:35:45.570Z,11.55
2018-12-01T05:38:14.625Z,14.25
2018-12-01T05:40:43.791Z,13.90
2018-12-01T05:43:12.713Z,17.02
2018-12-01T05:45:41.791Z,10.05
2018-12-01T05:48:10.551Z,15.35
2018-12-01T05:51:33.747Z,15.65
2018-12-01T05:54:03.426Z,16.82
2018-12-01T05:56:32.458Z,13.58
2018-12-01T05:59:11.446Z,19.23
2018-12-01T06:01:40.166Z,19.02
2018-12-01T06:04:09.272Z,16.12
2018-12-01T06:06:38.408Z,19.23
2018-12-01T06:09:08.827Z,21.10
2018-12-01T06:11:37.761Z,23.10
2018-12-01T06:14:07.036Z,27.75
2018-12-01T06:16:35.866Z,22.98
2018-12-01T06:19:05.539Z,17.67
2018-12-01T06:21:34.726Z,20.20
2018-12-01T06:24:03.854Z,22.17
2018-12-01T06:26:32.723Z,22.75
2018-12-01T06:29:01.824Z,25.02
2018-12-01T06:31:30.615Z,21.10
2018-12-01T06:33:59.884Z,29.60
2018-12-01T06:36:29.379Z,30.17
2018-12-01T06:38:59.223Z,26.77
2018-12-01T06:41:28.022Z,26.82
2018-12-01T06:44:09.626Z,26.52
2018-12-01T06:46:38.656Z,21.12
2018-12-01T06:49:07.506Z,21.87
2018-12-01T06:51:37.052Z,22.73
2018-12-01T06:54:05.968Z,22.40
2018-12-01T06:56:35.603Z,21.33
2018-12-01T06:59:04.406Z,25.65
2018-12-01T07:01:33.639Z,17.52
2018-12-01T07:04:02.674Z,19.92
2018-12-01T07:06:31.492Z,18.57
2018-12-01T07:09:01.628Z,17.98
2018-12-01T07:11:30.562Z,19.60
2018-12-01T07:14:00.036Z,15.53
2018-12-01T07:16:29.308Z,17.40
2018-12-01T07:19:09.249Z,16.97
2018-12-01T07:21:38.603Z,16.23
2018-12-01T07:24:07.462Z,16.17
2018-12-01T07:26:36.947Z,17.82
2018-12-01T07:32:01.662Z,18.45
2018-12-01T07:34:48.398Z,17.05
2018-12-01T07:37:17.199Z,18.82
2018-12-01T07:39:49.193Z,20.27
2018-12-01T07:42:18.800Z,19.10
2018-12-01T07:44:49.873Z,14.58
2018-12-01T07:47:18.612Z,15.95
2018-12-01T07:49:47.624Z,16.15
2018-12-01T07:52:16.447Z,16.73
2018-12-01T07:54:45.474Z,19.67
2018-12-01T07:57:14.872Z,16.48
2018-12-01T07:59:43.211Z,16.93
2018-12-01T08:02:11.979Z,16.62
2018-12-01T08:04:40.958Z,20.43
2018-12-01T08:07:10.894Z,20.25
2018-12-01T08:09:42.056Z,23.52
2018-12-01T08:12:10.947Z,19.90
2018-12-01T08:14:39.827Z,20.25
2018-12-01T08:17:08.698Z,20.40
2018-12-01T08:19:37.418Z,16.90
2018-12-01T08:22:06.612Z,14.78
2018-12-01T08:24:35.798Z,15.28
2018-12-01T08:27:04.842Z,17.23
2018-12-01T08:29:33.614Z,25.92
2018-12-01T08:32:02.507Z,14.75
2018-12-01T08:34:33.042Z,5.83
2018-12-01T08:37:02.001Z,7.90
2018-12-01T08:39:31.005Z,5.00
2018-12-01T08:41:59.760Z,5.70
2018-12-01T08:44:28.901Z,7.30
2018-12-01T08:46:57.611Z,9.70
2018-12-01T08:49:26.619Z,10.03
2018-12-01T08:51:55.318Z,8.13
2018-12-01T08:54:24.778Z,7.80
2018-12-01T08:56:53.536Z,14.33
2018-12-01T08:59:22.282Z,13.53
2018-12-01T09:01:51.738Z,9.20
2018-12-01T09:04:21.097Z,9.47
2018-12-01T09:06:50.152Z,8.80
2018-12-01T09:09:21.049Z,9.03
2018-12-01T09:11:52.158Z,10.33
2018-12-01T09:14:21.275Z,11.30
2018-12-01T09:16:50.015Z,8.23
2018-12-01T09:19:19.081Z,8.37
2018-12-01T09:21:47.916Z,8.37
2018-12-01T09:24:16.760Z,7.20
2018-12-01T09:26:45.520Z,9.97
2018-12-01T09:29:14.992Z,6.80
2018-12-01T09:31:43.806Z,6.30
2018-12-01T09:34:13.211Z,8.87
2018-12-01T09:36:41.989Z,6.57
2018-12-01T09:39:10.735Z,6.97
2018-12-01T09:41:39.887Z,6.80
2018-12-01T09:44:08.629Z,7.30
2018-12-01T09:46:37.578Z,5.63
2018-12-01T09:49:06.801Z,5.63
2018-12-01T09:51:35.558Z,5.20
2018-12-01T09:54:04.651Z,5.93
2018-12-01T09:56:33.515Z,6.43
2018-12-01T09:59:02.226Z,9.20
2018-12-01T10:01:31.114Z,14.10
2018-12-01T10:04:00.186Z,5.53
2018-12-01T10:06:29.009Z,5.30
2018-12-01T10:08:58.232Z,5.23
2018-12-01T10:11:27.239Z,6.20
2018-12-01T10:13:56.051Z,4.80
2018-12-01T10:16:24.975Z,5.63
2018-12-01T10:18:56.493Z,7.20
2018-12-01T10:21:22.755Z,7.10
2018-12-01T10:23:51.616Z,6.40
2018-12-01T10:26:20.556Z,6.47
2018-12-01T10:28:49.360Z,4.30
2018-12-01T10:34:16.928Z,6.20
2018-12-01T10:36:45.883Z,5.43
2018-12-01T10:39:14.780Z,5.30
2018-12-01T10:41:43.592Z,5.63
2018-12-01T10:44:12.398Z,6.20
2018-12-01T10:46:47.885Z,6.83
2018-12-01T10:49:22.940Z,6.23
2018-12-01T10:51:51.707Z,7.40
2018-12-01T10:54:20.916Z,7.80
2018-12-01T10:56:49.887Z,8.37
2018-12-01T10:59:18.691Z,8.47
2018-12-01T11:02:06.547Z,14.43
2018-12-01T11:04:38.480Z,8.40
2018-12-01T11:07:07.809Z,8.23
2018-12-01T11:09:36.831Z,8.40
2018-12-01T11:12:05.865Z,9.07
2018-12-01T11:14:34.719Z,6.87
2018-12-01T11:17:05.664Z,7.83
2018-12-01T11:19:34.955Z,7.80
2018-12-01T11:22:04.020Z,7.90
2018-12-01T11:24:32.963Z,8.53
2018-12-01T11:27:02.546Z,8.73
2018-12-01T11:29:31.735Z,11.60
2018-12-01T11:32:00.598Z,9.17
2018-12-01T11:34:29.448Z,13.40
2018-12-01T11:36:58.476Z,9.27
2018-12-01T11:39:27.355Z,10.70
2018-12-01T11:41:56.199Z,11.83
2018-12-01T11:44:25.203Z,10.13
2018-12-01T11:46:54.395Z,9.43
2018-12-01T11:49:23.286Z,8.63
2018-12-01T11:51:52.138Z,8.57
2018-12-01T11:54:21.100Z,6.20
2018-12-01T11:56:49.961Z,6.93
2018-12-01T11:59:19.546Z,8.87
2018-12-01T12:01:54.166Z,8.57
2018-12-01T12:04:23.048Z,11.57
2018-12-01T12:06:51.956Z,12.20
2018-12-01T12:09:20.843Z,11.60
2018-12-01T12:11:49.694Z,9.47
2018-12-01T12:14:18.728Z,9.53
2018-12-01T12:16:47.927Z,11.90
2018-12-01T12:19:17.147Z,7.67
2018-12-01T12:21:46.201Z,8.40
2018-12-01T12:24:15.139Z,8.20
2018-12-01T12:26:43.967Z,8.40
2018-12-01T12:29:12.928Z,8.20
2018-12-01T12:31:41.790Z,8.33
2018-12-01T12:34:10.662Z,8.73
2018-12-01T12:36:39.610Z,6.70
2018-12-01T12:39:08.416Z,9.63
2018-12-01T12:41:37.242Z,4.87
2018-12-01T12:44:06.433Z,7.57
2018-12-01T12:46:35.405Z,5.87
2018-12-01T12:49:04.173Z,8.20
2018-12-01T12:51:33.188Z,9.10
2018-12-01T12:54:02.115Z,6.20
2018-12-01T12:56:31.529Z,7.03
2018-12-01T12:59:00.530Z,7.20
2018-12-01T13:01:29.310Z,11.33
2018-12-01T13:03:58.324Z,4.83
2018-12-01T13:06:27.326Z,9.03
2018-12-01T13:08:56.225Z,5.03
2018-12-01T13:11:25.068Z,4.10
2018-12-01T13:13:54.071Z,6.07
2018-12-01T13:16:23.633Z,5.20
2018-12-01T13:18:52.547Z,4.83
2018-12-01T13:21:21.670Z,5.13
2018-12-01T13:23:50.632Z,5.83
2018-12-01T13:26:20.428Z,5.00
2018-12-01T13:28:49.700Z,5.20
2018-12-01T13:31:18.718Z,6.77
2018-12-01T13:33:47.707Z,5.47
2018-12-01T13:36:16.722Z,8.20
2018-12-01T13:38:45.697Z,17.00
2018-12-01T13:41:14.706Z,8.93
2018-12-01T13:44:06.648Z,7.70
2018-12-01T13:46:38.169Z,8.73
2018-12-01T13:49:24.339Z,3.80
2018-12-01T13:51:56.853Z,7.53
2018-12-01T13:54:29.120Z,4.77
2018-12-01T13:56:57.989Z,6.80
2018-12-01T13:59:26.962Z,4.50
2018-12-01T14:01:56.196Z,5.90
2018-12-01T14:04:25.269Z,8.10
2018-12-01T14:06:55.917Z,4.33
2018-12-01T14:09:24.832Z,5.83
2018-12-01T14:11:54.074Z,5.70
2018-12-01T14:14:22.902Z,5.00
2018-12-01T14:16:52.040Z,5.67
2018-12-01T14:19:20.853Z,7.67
2018-12-01T14:21:49.915Z,2.73
2018-12-01T14:24:18.761Z,13.30
2018-12-01T14:26:47.647Z,5.80
2018-12-01T14:29:16.601Z,4.60
2018-12-01T14:31:46.357Z,8.47
2018-12-01T14:34:15.275Z,4.60
2018-12-01T14:36:44.092Z,8.13
2018-12-01T14:39:13.642Z,4.25
2018-12-01T14:41:42.507Z,5.33
2018-12-01T14:44:11.963Z,10.43
2018-12-01T14:46:41.152Z,5.83
2018-12-01T14:49:10.326Z,5.72
2018-12-01T14:51:39.771Z,6.55
2018-12-01T14:54:08.845Z,4.70
2018-12-01T14:56:37.798Z,3.50
2018-12-01T14:59:07.913Z,5.58
2018-12-01T15:01:37.080Z,9.67
2018-12-01T15:04:06.897Z,4.60
2018-12-01T15:06:35.877Z,4.33
2018-12-01T15:09:07.039Z,5.77
2018-12-01T15:11:36.613Z,4.43
2018-12-01T15:14:05.583Z,4.00
2018-12-01T15:16:34.883Z,5.93
2018-12-01T15:19:05.278Z,5.60
2018-12-01T15:21:34.175Z,9.23
2018-12-01T15:24:03.619Z,6.45
2018-12-01T15:26:33.086Z,9.70
2018-12-01T15:29:02.121Z,8.17
2018-12-01T15:31:31.099Z,8.13
2018-12-01T15:34:01.869Z,11.63
2018-12-01T15:36:30.619Z,15.98
2018-12-01T15:38:59.682Z,15.03
2018-12-01T15:41:28.522Z,9.88
2018-12-01T15:43:57.793Z,9.33
2018-12-01T15:46:26.607Z,14.30
2018-12-01T15:48:55.468Z,16.65
2018-12-01T15:51:24.350Z,14.13
2018-12-01T15:53:53.754Z,9.60
2018-12-01T15:56:25.985Z,7.20
2018-12-01T15:58:55.448Z,7.62
2018-12-01T16:01:24.304Z,6.62
2018-12-01T16:03:53.234Z,3.80
2018-12-01T16:06:22.147Z,6.17
2018-12-01T16:08:51.068Z,5.67
2018-12-01T16:11:21.383Z,10.23
2018-12-01T16:14:00.143Z,8.08
2018-12-01T16:16:30.798Z,6.72
2018-12-01T16:18:59.996Z,21.90
2018-12-01T16:21:30.532Z,15.78
2018-12-01T16:24:03.357Z,9.65
2018-12-01T16:26:32.865Z,10.15
2018-12-01T16:29:02.749Z,13.22
2018-12-01T16:31:33.650Z,11.53
2018-12-01T16:34:02.964Z,7.55
2018-12-01T16:36:33.777Z,9.85
2018-12-01T16:39:03.494Z,10.63
2018-12-01T16:41:34.679Z,9.60
2018-12-01T16:44:03.893Z,10.53
2018-12-01T16:46:32.786Z,7.70
2018-12-01T16:49:01.887Z,10.23
2018-12-01T16:51:31.475Z,9.00
2018-12-01T16:54:00.656Z,18.07
2018-12-01T16:56:29.547Z,9.13
2018-12-01T16:58:59.199Z,7.12
2018-12-01T17:01:28.096Z,14.85
2018-12-01T17:03:56.902Z,11.20
2018-12-01T17:06:26.980Z,10.10
2018-12-01T17:08:56.844Z,16.20
2018-12-01T17:11:26.179Z,11.22
2018-12-01T17:13:56.704Z,9.70
2018-12-01T17:16:25.859Z,8.98
2018-12-01T17:18:54.715Z,9.25
2018-12-01T17:21:24.345Z,6.45
2018-12-01T17:23:53.393Z,6.90
2018-12-01T17:26:22.486Z,5.55
2018-12-01T17:28:51.432Z,7.03
2018-12-01T17:31:24.258Z,8.10
2018-12-01T17:33:53.140Z,11.20
2018-12-01T17:36:22.011Z,9.90
2018-12-01T17:38:50.826Z,6.92
2018-12-01T17:41:24.723Z,8.18
2018-12-01T17:43:57.244Z,6.17
2018-12-01T17:46:26.062Z,7.20
2018-12-01T17:48:55.734Z,11.83
2018-12-01T17:51:25.182Z,8.65
2018-12-01T17:53:57.657Z,4.80
2018-12-01T17:56:26.528Z,8.08
2018-12-01T17:58:55.715Z,6.95
2018-12-01T18:01:24.560Z,8.63
2018-12-01T18:03:53.519Z,8.65
2018-12-01T18:06:22.423Z,8.48
2018-12-01T18:08:53.120Z,7.87
2018-12-01T18:11:29.507Z,9.18
2018-12-01T18:13:54.240Z,8.53
2018-12-01T18:16:23.194Z,6.30
2018-12-01T18:18:52.428Z,8.83
2018-12-01T18:21:21.259Z,5.28
2018-12-01T18:23:50.067Z,7.83
2018-12-01T18:26:18.928Z,6.65
2018-12-01T18:28:49.701Z,5.10
2018-12-01T18:31:26.956Z,8.75
2018-12-01T18:34:15.154Z,8.88
2018-12-01T18:36:43.996Z,10.25
2018-12-01T18:39:17.623Z,6.87
2018-12-01T18:41:47.352Z,3.85
2018-12-01T18:44:16.282Z,4.95
2018-12-01T18:46:45.781Z,4.92
2018-12-01T18:49:14.674Z,8.65
2018-12-01T18:51:43.564Z,8.40
2018-12-01T18:54:12.434Z,9.88
2018-12-01T18:56:41.640Z,5.60
2018-12-01T18:59:12.451Z,6.42
2018-12-01T19:01:41.407Z,8.90
2018-12-01T19:04:10.300Z,14.98
2018-12-01T19:06:40.750Z,10.38
2018-12-01T19:09:09.616Z,9.33
2018-12-01T19:11:56.185Z,4.67
2018-12-01T19:14:25.016Z,6.85
2018-12-01T19:16:54.705Z,15.13
2018-12-01T19:19:23.475Z,11.15
2018-12-01T19:21:56.975Z,12.55
2018-12-01T19:24:25.834Z,53.28
2018-12-01T19:26:54.615Z,14.58
2018-12-01T19:29:24.283Z,15.10
2018-12-01T19:31:53.123Z,13.95
2018-12-01T19:34:22.024Z,7.45
2018-12-01T19:36:50.928Z,4.90
2018-12-01T19:39:20.512Z,7.45
2018-12-01T19:41:49.477Z,7.33
2018-12-01T19:44:22.130Z,5.08
2018-12-01T19:46:51.030Z,7.70
2018-12-01T19:49:20.371Z,6.15
2018-12-01T19:51:50.061Z,5.53
2018-12-01T19:54:21.599Z,6.45
2018-12-01T19:56:55.509Z,6.55
2018-12-01T19:59:25.187Z,7.17
2018-12-01T20:01:54.101Z,19.67
2018-12-01T20:04:22.940Z,25.10
2018-12-01T20:06:51.936Z,26.42
2018-12-01T20:09:21.203Z,44.08
2018-12-01T20:11:50.065Z,16.77
2018-12-01T20:14:19.004Z,23.95
2018-12-01T20:16:50.722Z,26.80
2018-12-01T20:19:19.941Z,19.80
2018-12-01T20:21:48.819Z,24.32
2018-12-01T20:24:18.019Z,18.73
2018-12-01T20:26:46.826Z,24.82
2018-12-01T20:29:15.783Z,29.95
2018-12-01T20:31:44.595Z,24.25
2018-12-01T20:34:13.383Z,25.00
2018-12-01T20:36:49.827Z,12.18
2018-12-01T20:39:21.978Z,9.15
2018-12-01T20:41:50.845Z,7.12
2018-12-01T20:44:19.604Z,6.28
2018-12-01T20:46:48.448Z,6.40
2018-12-01T20:49:17.425Z,6.60
2018-12-01T20:51:46.528Z,6.80
2018-12-01T20:54:35.169Z,10.32
2018-12-01T20:57:22.996Z,15.75
2018-12-01T20:59:51.921Z,15.55
2018-12-01T21:02:21.496Z,12.55
2018-12-01T21:04:50.780Z,18.25
2018-12-01T21:07:19.751Z,17.67
2018-12-01T21:09:48.581Z,15.70
2018-12-01T21:15:12.156Z,11.78
2018-12-01T21:17:42.468Z,23.42
2018-12-01T21:20:13.511Z,15.13
2018-12-01T21:22:50.467Z,19.48
2018-12-01T21:25:24.843Z,14.05
2018-12-01T21:27:54.609Z,18.87
2018-12-01T21:30:25.220Z,16.95
2018-12-01T21:34:00.235Z,19.17
2018-12-01T21:36:29.253Z,25.23
2018-12-01T21:38:58.748Z,17.07
2018-12-01T21:41:27.888Z,18.15
2018-12-01T21:43:56.868Z,15.65
2018-12-01T21:46:26.091Z,33.90
2018-12-01T21:48:54.986Z,34.27
2018-12-01T21:51:23.839Z,28.85
2018-12-01T21:53:52.731Z,21.70
2018-12-01T21:56:21.907Z,29.87
2018-12-01T21:58:53.122Z,32.38
2018-12-01T22:01:22.077Z,37.73
2018-12-01T22:03:51.713Z,32.75
2018-12-01T22:06:20.565Z,23.65
2018-12-01T22:08:50.392Z,9.40
2018-12-01T22:11:19.199Z,7.33
2018-12-01T22:13:48.079Z,10.95
2018-12-01T22:16:17.002Z,9.05
2018-12-01T22:18:46.800Z,6.78
2018-12-01T22:21:17.582Z,8.95
2018-12-01T22:23:46.364Z,5.78
2018-12-01T22:26:15.284Z,9.13
2018-12-01T22:28:44.151Z,6.00
2018-12-01T22:31:13.295Z,8.15
2018-12-01T22:33:42.252Z,7.40
2018-12-01T22:36:12.406Z,4.95
2018-12-01T22:38:41.600Z,6.53
2018-12-01T22:41:11.502Z,4.40
2018-12-01T22:43:42.105Z,4.90
2018-12-01T22:46:10.961Z,5.15
2018-12-01T22:48:40.557Z,5.20
2018-12-01T22:51:09.400Z,6.42
2018-12-01T22:53:38.401Z,3.92
2018-12-01T22:56:07.970Z,5.28
2018-12-01T22:58:36.852Z,6.45
2018-12-01T23:01:06.053Z,4.45
2018-12-01T23:03:37.579Z,4.45
2018-12-01T23:06:09.744Z,6.83
2018-12-01T23:08:38.895Z,6.08
2018-12-01T23:11:08.698Z,9.60
2018-12-01T23:13:37.919Z,10.65
2018-12-01T23:16:11.156Z,4.10
2018-12-01T23:18:40.010Z,4.90
2018-12-01T23:21:09.190Z,5.40
2018-12-01T23:23:38.160Z,5.65
2018-12-01T23:26:07.024Z,7.12
2018-12-01T23:28:36.547Z,4.08
2018-12-01T23:31:05.625Z,5.75
2018-12-01T23:33:34.456Z,6.03
2018-12-01T23:36:03.524Z,4.15
2018-12-01T23:38:32.545Z,5.65
2018-12-01T23:41:05.589Z,4.25
2018-12-01T23:43:34.298Z,5.40
2018-12-01T23:46:04.163Z,5.35
2018-12-01T23:48:33.372Z,5.42
2018-12-01T23:51:02.451Z,6.78
2018-12-01T23:53:31.174Z,7.67
2018-12-01T23:56:00.046Z,7.53
2018-12-01T23:58:29.141Z,8.75
